Time;durP1;ratioP1;P1;durP2;ratioP2;P2;SDS_P1;SDS_P2;PMS_P1;PMS_P2;Temp;Humidity;BMP_temperature;BMP_pressure;BME280_temperature;BME280_humidity;BME280_pressure;Samples;Min_cycle;Max_cycle;Signal;HPM_P1;HPM_P2
2023/08/15 00:00:07;;;;;;;2.50;2.30;;;;;;;23.05;54.79;93772.66;513889;28;1296;-45
2023/08/15 00:00:22;;;;;;;2.28;2.03;;;;;;;23.05;54.87;93781.09;513960;28;801;-46
2023/08/15 00:00:38;;;;;;;2.20;1.80;;;;;;;23.05;54.92;93784.66;513730;28;1174;-45
2023/08/15 00:00:53;;;;;;;2.77;1.80;;;;;;;23.05;55.35;93775.47;513096;28;1621;-45
2023/08/15 00:01:08;;;;;;;2.57;1.80;;;;;;;23.05;55.34;93778.28;513032;28;947;-46
2023/08/15 00:01:24;;;;;;;2.43;1.70;;;;;;;23.05;55.24;93778.28;512776;28;860;-46
2023/08/15 00:01:39;;;;;;;2.17;1.65;;;;;;;23.05;55.07;93773.41;511950;28;845;-46
2023/08/15 00:01:54;;;;;;;1.63;1.53;;;;;;;23.05;54.90;93773.41;512946;28;811;-45
2023/08/15 00:02:10;;;;;;;1.77;1.53;;;;;;;22.99;54.63;93773.06;513947;28;1142;-47
2023/08/15 00:02:25;;;;;;;2.45;1.70;;;;;;;23.04;54.82;93771.22;514185;28;789;-46
2023/08/15 00:02:41;;;;;;;2.40;1.73;;;;;;;23.04;54.66;93776.84;514034;28;771;-46
2023/08/15 00:02:56;;;;;;;2.10;1.90;;;;;;;23.03;54.73;93778.19;514045;28;823;-46
2023/08/15 00:03:11;;;;;;;2.10;1.90;;;;;;;23.04;54.54;93779.66;514129;28;816;-45
2023/08/15 00:03:27;;;;;;;2.90;1.70;;;;;;;23.03;54.67;93778.19;513558;28;1759;-46
2023/08/15 00:03:46;;;;;;;3.28;2.10;;;;;;;23.00;54.61;93771.00;513227;28;1130;-46
2023/08/15 00:04:01;;;;;;;2.40;2.10;;;;;;;23.02;54.77;93771.09;513318;28;916;-45
2023/08/15 00:04:17;;;;;;;2.00;1.80;;;;;;;23.01;54.86;93776.00;512084;28;920;-46
2023/08/15 00:04:32;;;;;;;2.20;2.00;;;;;;;23.01;54.40;93767.56;512677;28;797;-46
2023/08/15 00:04:47;;;;;;;2.22;1.92;;;;;;;23.00;54.39;93766.06;514102;28;797;-45
2023/08/15 00:05:03;;;;;;;1.73;1.60;;;;;;;23.00;54.67;93768.88;514011;28;942;-46
2023/08/15 00:05:18;;;;;;;1.60;1.50;;;;;;;22.99;54.29;93770.25;513909;28;1075;-47
2023/08/15 00:05:36;;;;;;;1.60;1.50;;;;;;;22.98;54.18;93768.78;514122;28;821;-46
2023/08/15 00:05:51;;;;;;;2.00;1.80;;;;;;;22.97;54.46;93772.97;513811;28;1217;-45
2023/08/15 00:06:07;;;;;;;2.00;1.80;;;;;;;22.96;54.36;93765.88;514169;28;903;-47
2023/08/15 00:06:22;;;;;;;2.27;1.70;;;;;;;22.95;54.43;93766.50;513773;28;1123;-46
2023/08/15 00:06:37;;;;;;;2.10;1.80;;;;;;;22.95;54.43;93770.06;513428;28;2393;-46
2023/08/15 00:06:53;;;;;;;1.95;1.85;;;;;;;22.94;54.80;93765.75;513765;28;851;-45
2023/08/15 00:07:09;;;;;;;2.13;1.97;;;;;;;22.93;54.29;93772.03;513967;28;1222;-47
2023/08/15 00:07:24;;;;;;;4.20;1.90;;;;;;;22.92;54.27;93767.72;514058;28;868;-46
2023/08/15 00:07:40;;;;;;;4.72;1.85;;;;;;;22.91;54.37;93766.28;514072;28;777;-46
2023/08/15 00:07:55;;;;;;;2.40;1.80;;;;;;;22.89;54.27;93766.88;514053;28;867;-46
2023/08/15 00:08:11;;;;;;;2.17;1.90;;;;;;;22.89;54.24;93766.19;513920;28;1449;-48
2023/08/15 00:08:26;;;;;;;2.25;2.05;;;;;;;22.88;54.51;93764.72;514230;28;844;-45
2023/08/15 00:08:41;;;;;;;2.08;1.88;;;;;;;22.88;54.78;93762.63;514095;28;919;-46
2023/08/15 00:09:00;;;;;;;1.83;1.70;;;;;;;22.78;54.60;93750.84;514122;28;816;-46
2023/08/15 00:09:15;;;;;;;2.30;1.90;;;;;;;22.88;54.55;93761.88;513829;28;1719;-46
2023/08/15 00:09:31;;;;;;;2.13;1.92;;;;;;;22.87;54.59;93763.25;513255;28;876;-46
2023/08/15 00:09:47;;;;;;;2.30;1.98;;;;;;;22.87;54.32;93766.06;513300;28;1139;-45
2023/08/15 00:10:02;;;;;;;2.47;2.00;;;;;;;22.86;54.28;93759.72;514013;28;1145;-45
2023/08/15 00:10:18;;;;;;;3.33;2.03;;;;;;;22.85;54.53;93760.34;514141;28;841;-45
2023/08/15 00:10:33;;;;;;;3.23;2.10;;;;;;;22.85;54.23;93760.34;512005;28;872;-46
2023/08/15 00:10:48;;;;;;;2.08;1.85;;;;;;;22.85;54.37;93757.53;512669;28;876;-46
2023/08/15 00:11:04;;;;;;;2.10;1.80;;;;;;;22.81;54.09;93752.38;514137;28;773;-47
2023/08/15 00:11:23;;;;;;;2.15;1.90;;;;;;;22.82;53.97;93759.50;513906;28;1127;-46
2023/08/15 00:11:38;;;;;;;2.20;2.00;;;;;;;22.82;54.19;93759.50;512109;28;838;-46
2023/08/15 00:11:54;;;;;;;1.73;1.60;;;;;;;22.81;54.01;93760.84;513344;28;890;-46
2023/08/15 00:12:09;;;;;;;1.70;1.57;;;;;;;22.63;54.07;93731.72;514042;28;895;-46
2023/08/15 00:12:24;;;;;;;2.03;1.70;;;;;;;22.79;54.35;93757.19;514042;28;886;-47
2023/08/15 00:12:40;;;;;;;2.70;1.70;;;;;;;22.78;54.29;93762.09;513869;28;1919;-48
2023/08/15 00:12:55;;;;;;;2.33;1.70;;;;;;;22.78;54.46;93747.28;512985;28;1569;-46
2023/08/15 00:13:10;;;;;;;1.97;1.87;;;;;;;22.77;54.38;93757.06;513508;28;786;-47
2023/08/15 00:13:26;;;;;;;2.38;2.17;;;;;;;22.77;54.24;93757.81;512649;28;797;-46
2023/08/15 00:13:41;;;;;;;2.30;2.10;;;;;;;22.78;54.38;93764.16;512076;28;861;-45
2023/08/15 00:13:57;;;;;;;2.83;1.87;;;;;;;22.76;54.29;93756.31;513192;28;1024;-45
2023/08/15 00:14:13;;;;;;;2.42;1.70;;;;;;;22.78;54.41;93759.28;513939;28;1084;-46
2023/08/15 00:14:28;;;;;;;1.90;1.80;;;;;;;22.78;54.43;93758.53;514038;28;959;-48
2023/08/15 00:14:43;;;;;;;2.00;1.80;;;;;;;22.77;54.59;93763.44;514084;28;805;-46
2023/08/15 00:14:59;;;;;;;2.87;1.80;;;;;;;22.78;54.46;93764.91;514077;28;781;-46
2023/08/15 00:15:14;;;;;;;3.03;1.70;;;;;;;22.79;54.49;93760.00;514104;28;1680;-46
2023/08/15 00:15:30;;;;;;;1.70;1.60;;;;;;;22.79;54.52;93754.34;514041;28;996;-48
2023/08/15 00:15:46;;;;;;;1.73;1.63;;;;;;;22.80;54.66;93761.47;513975;28;1116;-46
2023/08/15 00:16:01;;;;;;;2.03;1.83;;;;;;;22.80;54.54;93758.66;514023;28;885;-47
2023/08/15 00:16:16;;;;;;;2.00;1.80;;;;;;;22.81;54.26;93758.00;514140;28;1090;-46
2023/08/15 00:16:32;;;;;;;1.63;1.53;;;;;;;22.81;54.40;93760.09;513940;28;924;-45
2023/08/15 00:16:47;;;;;;;1.83;1.70;;;;;;;22.65;54.33;93736.72;513274;28;1735;-46
2023/08/15 00:17:03;;;;;;;2.10;1.90;;;;;;;22.80;54.29;93753.03;514037;28;861;-45
2023/08/15 00:17:18;;;;;;;2.33;1.97;;;;;;;22.80;54.03;93753.75;513866;28;873;-47
2023/08/15 00:17:33;;;;;;;3.00;1.90;;;;;;;22.80;54.25;93758.66;514035;28;950;-46
2023/08/15 00:17:49;;;;;;;2.47;1.83;;;;;;;22.81;53.85;93754.47;514006;28;955;-46
2023/08/15 00:18:05;;;;;;;1.80;1.70;;;;;;;22.80;53.96;93756.56;514097;28;876;-47
2023/08/15 00:18:20;;;;;;;2.20;2.00;;;;;;;22.80;53.64;93753.03;514034;28;940;-45
2023/08/15 00:18:35;;;;;;;2.30;2.10;;;;;;;22.81;53.48;93757.28;514103;28;782;-47
2023/08/15 00:18:51;;;;;;;1.97;1.83;;;;;;;22.78;53.38;93753.66;513797;28;1341;-45
2023/08/15 00:19:06;;;;;;;2.30;1.90;;;;;;;22.79;53.44;93754.34;514017;28;859;-46
2023/08/15 00:19:21;;;;;;;2.40;1.70;;;;;;;22.78;53.23;93752.91;513926;28;864;-46
2023/08/15 00:19:37;;;;;;;1.70;1.50;;;;;;;22.77;53.10;93743.72;512638;28;1776;-46
2023/08/15 00:19:52;;;;;;;1.60;1.50;;;;;;;22.77;53.11;93752.19;513771;28;1213;-46
2023/08/15 00:20:08;;;;;;;1.77;1.67;;;;;;;22.76;53.18;93750.69;513978;28;1229;-47
2023/08/15 00:20:23;;;;;;;1.80;1.70;;;;;;;22.77;52.92;93752.19;514064;28;879;-46
2023/08/15 00:20:39;;;;;;;1.97;1.77;;;;;;;22.78;53.24;93756.47;513982;28;852;-45
2023/08/15 00:20:54;;;;;;;1.90;1.77;;;;;;;22.77;53.04;93751.44;514059;28;833;-46
2023/08/15 00:21:09;;;;;;;2.00;1.83;;;;;;;22.78;53.00;93748.03;514077;28;773;-46
2023/08/15 00:21:25;;;;;;;2.03;1.83;;;;;;;22.79;52.91;93755.09;513950;28;1140;-46
2023/08/15 00:21:40;;;;;;;1.93;1.80;;;;;;;22.80;52.92;93753.03;513928;28;1064;-46
2023/08/15 00:21:55;;;;;;;2.25;2.05;;;;;;;22.81;52.88;93754.47;514018;28;884;-46
2023/08/15 00:22:11;;;;;;;2.20;2.00;;;;;;;22.80;53.42;93755.84;514028;28;782;-46
2023/08/15 00:22:26;;;;;;;1.80;1.70;;;;;;;22.80;53.14;93750.94;514160;28;946;-46
2023/08/15 00:22:42;;;;;;;1.67;1.58;;;;;;;22.80;53.20;93748.13;513980;28;852;-45
2023/08/15 00:22:57;;;;;;;1.77;1.67;;;;;;;22.77;53.45;93748.63;514038;28;786;-46
2023/08/15 00:23:13;;;;;;;2.20;2.00;;;;;;;22.81;53.35;93748.84;514017;28;1103;-45
2023/08/15 00:23:28;;;;;;;2.20;2.00;;;;;;;22.80;53.57;93750.94;513984;28;876;-46
2023/08/15 00:23:43;;;;;;;2.47;1.83;;;;;;;22.81;53.81;93751.66;514055;28;856;-47
2023/08/15 00:23:59;;;;;;;2.97;1.90;;;;;;;22.81;54.15;93755.19;512183;28;1697;-46
2023/08/15 00:24:14;;;;;;;2.35;1.90;;;;;;;22.81;54.11;93757.28;513008;28;926;-46
2023/08/15 00:24:30;;;;;;;1.93;1.83;;;;;;;22.81;54.72;93755.19;513309;28;927;-47
2023/08/15 00:24:45;;;;;;;2.05;1.90;;;;;;;22.80;54.72;93750.94;512939;28;1155;-46
2023/08/15 00:25:00;;;;;;;2.10;1.97;;;;;;;22.80;54.63;93750.94;514039;28;844;-45
2023/08/15 00:25:16;;;;;;;2.13;1.90;;;;;;;22.80;54.79;93744.56;514051;28;844;-46
2023/08/15 00:25:31;;;;;;;3.83;1.80;;;;;;;22.73;54.80;93740.69;513987;28;872;-46
2023/08/15 00:25:47;;;;;;;3.40;1.63;;;;;;;22.81;54.94;93752.38;515884;28;812;-46
2023/08/15 00:26:02;;;;;;;1.67;1.58;;;;;;;22.81;55.03;93748.84;515797;28;884;-47
2023/08/15 00:26:17;;;;;;;1.87;1.70;;;;;;;22.51;54.78;93712.06;515454;28;1202;-46
2023/08/15 00:26:33;;;;;;;2.33;2.00;;;;;;;22.82;55.14;93744.69;515818;28;1158;-48
2023/08/15 00:26:48;;;;;;;2.28;2.08;;;;;;;22.81;54.61;93749.56;513188;28;1751;-47
2023/08/15 00:27:03;;;;;;;2.10;1.80;;;;;;;22.76;54.46;93742.25;512260;28;932;-46
2023/08/15 00:27:19;;;;;;;2.17;1.77;;;;;;;22.80;54.44;93745.31;513206;28;896;-45
2023/08/15 00:27:34;;;;;;;1.90;1.70;;;;;;;22.80;54.34;93753.03;513800;28;888;-46
2023/08/15 00:27:50;;;;;;;3.60;1.90;;;;;;;22.78;54.38;93745.19;513443;28;1162;-46
2023/08/15 00:28:05;;;;;;;3.77;1.97;;;;;;;22.75;54.55;93749.25;511834;28;1466;-46
2023/08/15 00:28:21;;;;;;;2.22;1.90;;;;;;;22.79;54.54;93748.72;511880;29;864;-47
2023/08/15 00:28:36;;;;;;;2.17;1.90;;;;;;;22.78;54.76;93753.66;512157;28;824;-46
2023/08/15 00:28:51;;;;;;;2.77;1.90;;;;;;;22.71;54.99;93737.78;513819;28;881;-46
2023/08/15 00:29:07;;;;;;;3.15;1.88;;;;;;;22.77;54.70;93751.44;513865;28;881;-46
2023/08/15 00:29:22;;;;;;;3.23;1.90;;;;;;;22.76;54.83;93750.00;513759;28;1198;-47
2023/08/15 00:29:37;;;;;;;2.67;2.03;;;;;;;22.75;54.85;93751.34;511555;28;1863;-45
2023/08/15 00:29:53;;;;;;;2.10;1.90;;;;;;;22.67;54.87;93737.56;512112;28;770;-46
2023/08/15 00:30:08;;;;;;;1.90;1.80;;;;;;;22.74;54.93;93755.50;513849;28;1007;-47
2023/08/15 00:30:24;;;;;;;2.08;1.90;;;;;;;22.73;55.15;93751.97;513961;28;781;-46
2023/08/15 00:30:39;;;;;;;2.60;2.00;;;;;;;22.72;54.80;93753.31;513782;28;1016;-46
2023/08/15 00:30:54;;;;;;;2.63;1.90;;;;;;;22.71;54.95;93749.03;513953;28;812;-48
2023/08/15 00:31:10;;;;;;;2.00;1.80;;;;;;;22.56;54.81;93727.81;511884;29;936;-46
2023/08/15 00:31:25;;;;;;;2.10;1.87;;;;;;;22.69;54.88;93751.75;512148;28;839;-46
2023/08/15 00:31:41;;;;;;;2.10;1.70;;;;;;;22.70;54.57;93744.75;513870;28;917;-45
2023/08/15 00:31:56;;;;;;;1.73;1.60;;;;;;;22.69;54.20;93751.00;513884;28;777;-46
2023/08/15 00:32:11;;;;;;;1.90;1.70;;;;;;;22.68;54.34;93753.09;513685;28;1108;-47
2023/08/15 00:32:27;;;;;;;2.10;1.90;;;;;;;22.68;54.20;93750.28;513942;28;789;-46
2023/08/15 00:32:42;;;;;;;2.00;1.90;;;;;;;22.67;54.13;93751.63;513688;28;1918;-46
2023/08/15 00:32:58;;;;;;;2.03;1.87;;;;;;;22.67;54.15;93751.63;513866;28;933;-45
2023/08/15 00:33:13;;;;;;;2.20;1.90;;;;;;;22.66;54.12;93750.16;514068;28;788;-45
2023/08/15 00:33:28;;;;;;;2.20;1.92;;;;;;;22.60;54.19;93736.50;513759;28;805;-46
2023/08/15 00:33:44;;;;;;;2.23;2.03;;;;;;;22.67;54.14;93750.91;513101;28;1779;-47
2023/08/15 00:33:59;;;;;;;2.07;1.87;;;;;;;22.67;54.49;93748.09;513891;28;900;-46
2023/08/15 00:34:14;;;;;;;2.40;1.83;;;;;;;22.66;54.69;93749.44;512657;28;832;-46
2023/08/15 00:34:30;;;;;;;2.60;1.83;;;;;;;22.66;54.83;93746.63;511906;29;923;-45
2023/08/15 00:34:45;;;;;;;1.93;1.70;;;;;;;22.64;55.05;93750.06;512960;28;989;-46
2023/08/15 00:35:04;;;;;;;2.05;1.85;;;;;;;22.64;55.02;93750.06;513870;28;860;-47
2023/08/15 00:35:19;;;;;;;2.17;1.90;;;;;;;22.63;55.07;93753.50;513727;28;1215;-46
2023/08/15 00:35:35;;;;;;;2.00;1.80;;;;;;;22.61;54.92;93751.28;514026;28;1111;-45
2023/08/15 00:35:50;;;;;;;2.20;2.00;;;;;;;22.61;54.92;93752.03;513964;28;901;-45
2023/08/15 00:36:06;;;;;;;2.30;2.03;;;;;;;22.60;54.82;93752.66;514043;28;840;-46
2023/08/15 00:36:21;;;;;;;2.45;2.00;;;;;;;22.60;55.13;93747.75;514047;28;850;-46
2023/08/15 00:36:37;;;;;;;2.25;1.98;;;;;;;22.59;54.72;93749.09;514005;28;848;-45
2023/08/15 00:36:52;;;;;;;1.87;1.70;;;;;;;22.59;54.81;93748.38;513244;28;1811;-46
2023/08/15 00:37:07;;;;;;;2.03;1.87;;;;;;;22.60;55.13;93749.84;511992;28;1097;-46
2023/08/15 00:37:23;;;;;;;1.73;1.63;;;;;;;22.60;55.28;93752.66;511944;28;939;-46
2023/08/15 00:37:38;;;;;;;1.70;1.60;;;;;;;22.58;55.33;93750.44;512028;28;825;-46
2023/08/15 00:37:54;;;;;;;2.10;1.90;;;;;;;22.58;55.22;93746.91;513547;28;1113;-47
2023/08/15 00:38:09;;;;;;;2.23;2.03;;;;;;;22.57;55.38;93751.78;513970;28;1143;-46
2023/08/15 00:38:24;;;;;;;2.15;1.90;;;;;;;22.57;55.08;93751.78;514077;28;1117;-46
2023/08/15 00:38:40;;;;;;;2.90;1.80;;;;;;;22.56;54.98;93749.59;514041;28;836;-46
2023/08/15 00:38:55;;;;;;;2.40;1.70;;;;;;;22.47;55.35;93740.00;513956;28;794;-47
2023/08/15 00:39:10;;;;;;;1.77;1.67;;;;;;;22.54;55.09;93747.38;513999;28;955;-45
2023/08/15 00:39:26;;;;;;;2.10;1.90;;;;;;;22.53;55.29;93757.19;513095;28;1707;-46
2023/08/15 00:39:41;;;;;;;2.20;2.00;;;;;;;22.53;55.45;93759.28;513136;28;1036;-48
2023/08/15 00:39:56;;;;;;;2.08;1.88;;;;;;;22.52;55.10;93757.81;513982;28;903;-45
2023/08/15 00:40:12;;;;;;;1.75;1.65;;;;;;;22.50;55.04;93749.97;514018;28;792;-46
2023/08/15 00:40:27;;;;;;;2.50;1.67;;;;;;;22.50;54.91;93749.28;514041;28;830;-45
2023/08/15 00:40:42;;;;;;;2.43;1.70;;;;;;;22.47;55.01;93748.44;513991;28;1139;-46
2023/08/15 00:40:58;;;;;;;2.08;1.70;;;;;;;22.47;54.93;93754.06;513912;28;833;-47
2023/08/15 00:41:13;;;;;;;2.70;1.90;;;;;;;22.34;54.83;93729.41;514014;28;1147;-45
2023/08/15 00:41:29;;;;;;;2.27;1.80;;;;;;;22.47;55.00;93751.25;513402;28;1421;-46
2023/08/15 00:41:45;;;;;;;2.30;1.90;;;;;;;22.47;54.93;93750.50;513953;28;866;-46
2023/08/15 00:42:00;;;;;;;2.17;1.90;;;;;;;22.46;54.88;93752.59;514064;28;836;-46
2023/08/15 00:42:15;;;;;;;3.80;2.00;;;;;;;22.45;55.08;93745.50;513888;28;948;-45
2023/08/15 00:42:31;;;;;;;4.18;2.17;;;;;;;22.44;55.23;93755.28;514046;28;856;-46
2023/08/15 00:42:46;;;;;;;2.60;2.10;;;;;;;22.44;55.14;93748.91;513966;28;788;-46
2023/08/15 00:43:02;;;;;;;2.53;2.00;;;;;;;22.44;55.28;93751.72;514021;28;829;-47
2023/08/15 00:43:18;;;;;;;3.15;1.90;;;;;;;22.44;55.28;93749.66;514002;28;900;-46
2023/08/15 00:43:34;;;;;;;3.25;2.00;;;;;;;22.29;55.19;93721.38;512941;28;1731;-47
2023/08/15 00:43:49;;;;;;;2.10;1.90;;;;;;;22.44;55.23;93749.66;513278;28;821;-46
2023/08/15 00:44:05;;;;;;;1.97;1.70;;;;;;;22.44;55.26;93746.84;513971;28;991;-46
2023/08/15 00:44:20;;;;;;;2.35;2.00;;;;;;;22.45;55.28;93750.41;513944;28;1071;-46
2023/08/15 00:44:40;;;;;;;2.42;2.10;;;;;;;22.46;55.24;93751.84;513918;28;876;-46
2023/08/15 00:44:56;;;;;;;2.03;1.80;;;;;;;22.45;55.39;93745.50;513950;28;1710;-46
2023/08/15 00:45:12;;;;;;;2.63;2.10;;;;;;;22.45;55.33;93744.78;513974;28;829;-46
2023/08/15 00:45:27;;;;;;;2.60;2.07;;;;;;;22.45;55.62;93747.59;513956;28;902;-47
2023/08/15 00:45:43;;;;;;;2.07;1.87;;;;;;;22.46;55.68;93746.22;513924;28;1119;-45
2023/08/15 00:45:59;;;;;;;2.08;1.85;;;;;;;22.44;55.40;93746.84;513991;28;1006;-46
2023/08/15 00:46:16;;;;;;;2.47;1.90;;;;;;;22.44;55.21;93741.22;514037;28;962;-46
2023/08/15 00:46:31;;;;;;;2.00;1.80;;;;;;;22.44;55.25;93752.47;515816;28;952;-46
2023/08/15 00:46:47;;;;;;;2.25;2.08;;;;;;;22.44;55.63;93746.84;515436;28;1782;-45
2023/08/15 00:47:02;;;;;;;2.40;2.20;;;;;;;22.44;55.94;93746.84;514758;28;807;-46
2023/08/15 00:47:19;;;;;;;2.25;2.05;;;;;;;22.45;56.01;93744.78;512805;28;1147;-46
2023/08/15 00:47:34;;;;;;;2.35;2.15;;;;;;;22.45;56.08;93744.78;511811;29;947;-44
2023/08/15 00:47:50;;;;;;;2.33;2.10;;;;;;;22.46;56.03;93744.13;509729;29;1572;-46
2023/08/15 00:48:06;;;;;;;2.38;2.15;;;;;;;22.46;56.10;93741.31;509365;29;861;-45
2023/08/15 00:48:22;;;;;;;2.20;2.00;;;;;;;22.46;56.26;93744.13;505959;29;893;-45
2023/08/15 00:48:38;;;;;;;2.00;1.83;;;;;;;22.46;56.15;93751.84;505875;29;896;-47
2023/08/15 00:48:55;;;;;;;2.00;1.80;;;;;;;22.36;56.19;93737.97;508198;29;821;-45
2023/08/15 00:49:10;;;;;;;2.03;1.73;;;;;;;22.46;56.24;93740.59;507871;29;861;-46
2023/08/15 00:49:25;;;;;;;2.20;1.77;;;;;;;22.47;56.13;93742.81;507625;29;1798;-45
2023/08/15 00:49:42;;;;;;;2.43;2.07;;;;;;;22.48;55.95;93744.25;508025;29;747;-45
2023/08/15 00:49:58;;;;;;;2.40;2.15;;;;;;;22.45;55.82;93734.25;510644;29;1180;-46
2023/08/15 00:50:13;;;;;;;2.22;2.03;;;;;;;22.49;55.88;93745.72;509872;29;1029;-46
2023/08/15 00:50:29;;;;;;;2.10;1.90;;;;;;;22.51;56.01;93747.91;509764;29;972;-46
2023/08/15 00:50:47;;;;;;;2.20;2.00;;;;;;;22.40;55.79;93734.63;510455;29;1129;-45
2023/08/15 00:51:03;;;;;;;2.75;2.17;;;;;;;22.49;55.96;93742.91;510698;29;996;-45
2023/08/15 00:51:19;;;;;;;3.47;2.20;;;;;;;22.50;55.93;93738.03;511795;29;1065;-46
2023/08/15 00:51:34;;;;;;;2.35;2.00;;;;;;;22.49;55.74;93734.47;511708;29;908;-45
2023/08/15 00:51:50;;;;;;;1.97;1.87;;;;;;;22.51;55.74;93739.47;511761;28;997;-46
2023/08/15 00:52:06;;;;;;;1.73;1.63;;;;;;;22.51;55.76;93736.66;512701;28;776;-47
2023/08/15 00:52:21;;;;;;;1.77;1.67;;;;;;;22.51;56.04;93737.38;513746;28;767;-46
2023/08/15 00:52:37;;;;;;;2.10;1.90;;;;;;;22.51;55.88;93733.84;513801;28;2023;-47
2023/08/15 00:52:54;;;;;;;2.00;1.80;;;;;;;22.51;56.18;93734.56;513798;28;872;-46
2023/08/15 00:53:11;;;;;;;1.80;1.67;;;;;;;22.52;56.59;93732.50;515820;28;1085;-47
2023/08/15 00:53:29;;;;;;;2.22;2.03;;;;;;;22.51;56.31;93731.75;513850;28;795;-46
2023/08/15 00:53:44;;;;;;;2.30;2.10;;;;;;;22.51;56.45;93731.75;513887;28;883;-47
2023/08/15 00:54:00;;;;;;;2.10;1.90;;;;;;;22.51;56.67;93728.94;515198;28;1771;-46
2023/08/15 00:54:16;;;;;;;1.92;1.83;;;;;;;22.51;56.77;93728.22;514764;28;777;-47
2023/08/15 00:54:31;;;;;;;2.42;2.22;;;;;;;22.52;56.74;93738.13;514902;28;813;-46
2023/08/15 00:54:49;;;;;;;2.23;2.03;;;;;;;22.52;56.36;93738.84;512705;28;1151;-47
2023/08/15 00:55:05;;;;;;;3.15;1.88;;;;;;;22.53;56.42;93731.13;510537;28;891;-47
2023/08/15 00:55:20;;;;;;;3.28;2.25;;;;;;;22.47;56.26;93719.56;507836;29;960;-46
2023/08/15 00:55:36;;;;;;;2.17;2.00;;;;;;;22.54;56.36;93733.31;507904;29;842;-46
2023/08/15 00:55:54;;;;;;;2.20;2.00;;;;;;;22.55;56.46;93728.44;507821;29;1004;-47
2023/08/15 00:56:10;;;;;;;2.53;2.03;;;;;;;22.55;56.48;93729.16;505976;29;828;-46
2023/08/15 00:56:25;;;;;;;3.33;1.98;;;;;;;22.57;56.74;93728.53;506053;29;802;-46
2023/08/15 00:56:41;;;;;;;3.67;2.10;;;;;;;22.57;56.74;93732.09;506786;29;1694;-47
2023/08/15 00:56:56;;;;;;;2.70;2.00;;;;;;;22.56;56.68;93727.09;511121;28;915;-47
2023/08/15 00:57:12;;;;;;;2.30;2.10;;;;;;;22.56;56.63;93722.19;509774;29;853;-47
2023/08/15 00:57:27;;;;;;;2.35;2.15;;;;;;;22.56;56.99;93727.09;509692;28;975;-46
2023/08/15 00:57:43;;;;;;;2.20;2.00;;;;;;;22.57;56.94;93720.09;510174;28;1096;-47
2023/08/15 00:57:59;;;;;;;2.10;1.80;;;;;;;22.57;56.73;93720.09;511680;28;915;-46
2023/08/15 00:58:15;;;;;;;2.33;1.88;;;;;;;22.57;56.43;93718.00;509832;29;879;-46
2023/08/15 00:58:30;;;;;;;2.03;1.83;;;;;;;22.54;56.44;93719.25;509842;29;849;-47
2023/08/15 00:58:45;;;;;;;2.10;1.90;;;;;;;22.57;56.35;93726.47;509850;29;852;-46
2023/08/15 00:59:02;;;;;;;1.92;1.75;;;;;;;22.57;56.49;93720.81;510156;29;967;-46
2023/08/15 00:59:18;;;;;;;2.10;1.90;;;;;;;22.57;56.67;93718.00;511718;28;1120;-46
2023/08/15 00:59:34;;;;;;;2.20;1.87;;;;;;;22.58;56.62;93724.38;508984;29;1690;-46
2023/08/15 00:59:49;;;;;;;2.50;1.90;;;;;;;22.58;56.32;93721.56;509859;29;1241;-48
2023/08/15 01:00:05;;;;;;;2.57;2.10;;;;;;;22.58;56.34;93724.38;509698;28;1536;-46
2023/08/15 01:00:21;;;;;;;2.40;2.20;;;;;;;22.58;56.12;93719.47;511637;28;876;-46
2023/08/15 01:00:36;;;;;;;2.30;2.10;;;;;;;22.57;56.24;93720.81;511736;29;841;-46
2023/08/15 01:00:52;;;;;;;2.60;2.00;;;;;;;22.54;56.45;93716.44;511243;28;795;-47
2023/08/15 01:01:14;;;;;;;2.70;2.00;;;;;;;22.57;56.34;93720.09;511904;29;802;-47
2023/08/15 01:01:30;;;;;;;2.53;1.90;;;;;;;22.56;56.22;93721.47;513043;28;1073;-47
2023/08/15 01:01:45;;;;;;;2.22;1.92;;;;;;;22.56;56.19;93718.66;511691;28;944;-47
2023/08/15 01:02:02;;;;;;;2.43;2.23;;;;;;;22.57;56.41;93725.72;513227;28;826;-47
2023/08/15 01:02:17;;;;;;;2.50;2.30;;;;;;;22.56;56.34;93722.19;511704;29;1006;-47
2023/08/15 01:02:33;;;;;;;2.40;2.20;;;;;;;22.57;56.42;93722.91;509750;29;809;-45
2023/08/15 01:02:48;;;;;;;2.23;2.03;;;;;;;22.56;56.24;93719.38;509534;29;2387;-47
2023/08/15 01:03:04;;;;;;;2.20;2.00;;;;;;;22.57;56.14;93720.09;509705;29;794;-46
2023/08/15 01:03:20;;;;;;;2.70;2.30;;;;;;;22.56;56.48;93718.66;509601;28;1045;-47
2023/08/15 01:03:36;;;;;;;2.72;2.42;;;;;;;22.56;56.59;93721.47;508212;29;1086;-46
2023/08/15 01:03:51;;;;;;;2.33;2.13;;;;;;;22.55;56.37;93720.72;509525;29;996;-46
2023/08/15 01:04:08;;;;;;;2.22;2.03;;;;;;;22.56;56.59;93721.47;509946;29;1724;-46
2023/08/15 01:04:23;;;;;;;3.45;2.00;;;;;;;22.55;56.64;93720.72;512289;28;861;-46
2023/08/15 01:04:39;;;;;;;3.87;1.83;;;;;;;22.57;56.71;93722.91;513745;28;789;-46
2023/08/15 01:04:54;;;;;;;2.70;2.13;;;;;;;22.56;56.67;93713.00;511713;29;1667;-46
2023/08/15 01:05:11;;;;;;;2.40;2.20;;;;;;;22.55;56.76;93715.09;511706;29;940;-46
2023/08/15 01:05:26;;;;;;;2.35;1.90;;;;;;;22.38;56.61;93689.50;510542;29;818;-46
2023/08/15 01:05:42;;;;;;;2.10;1.88;;;;;;;22.56;56.43;93721.47;511808;28;881;-46
2023/08/15 01:05:58;;;;;;;1.85;1.73;;;;;;;22.55;56.67;93717.16;511564;28;1136;-47
2023/08/15 01:06:13;;;;;;;1.92;1.73;;;;;;;22.55;56.76;93714.34;511692;29;953;-47
2023/08/15 01:06:29;;;;;;;1.80;1.70;;;;;;;22.54;56.68;93722.06;511343;29;1096;-46
2023/08/15 01:06:44;;;;;;;2.60;2.00;;;;;;;22.53;56.42;93723.44;511615;28;1763;-46
2023/08/15 01:07:00;;;;;;;2.73;2.20;;;;;;;22.52;56.63;93721.94;513413;28;1267;-46
2023/08/15 01:07:17;;;;;;;2.93;1.93;;;;;;;22.51;56.56;93717.69;513542;28;1542;-47
2023/08/15 01:07:33;;;;;;;2.60;1.77;;;;;;;22.51;56.24;93717.69;513810;28;859;-46
2023/08/15 01:07:49;;;;;;;2.65;1.85;;;;;;;22.50;56.20;93715.50;513684;28;1419;-45
2023/08/15 01:08:06;;;;;;;2.63;1.80;;;;;;;22.49;56.42;93714.78;513977;28;781;-46
2023/08/15 01:08:21;;;;;;;1.88;1.77;;;;;;;22.48;56.33;93718.22;513970;28;855;-47
2023/08/15 01:08:37;;;;;;;1.97;1.77;;;;;;;22.48;56.16;93718.91;513928;28;963;-45
2023/08/15 01:08:52;;;;;;;1.93;1.73;;;;;;;22.46;56.51;93718.81;513850;28;950;-46
2023/08/15 01:09:08;;;;;;;2.10;1.90;;;;;;;22.45;56.51;93716.63;513935;28;844;-47
2023/08/15 01:09:23;;;;;;;1.97;1.73;;;;;;;22.48;56.56;93712.59;513635;28;1696;-46
2023/08/15 01:09:39;;;;;;;2.08;1.88;;;;;;;22.48;56.58;93721.72;513128;28;1031;-46
2023/08/15 01:09:54;;;;;;;2.40;2.10;;;;;;;22.47;56.65;93713.94;513337;28;754;-50
2023/08/15 01:10:09;;;;;;;2.00;1.80;;;;;;;22.45;56.83;93720.19;513835;28;957;-46
2023/08/15 01:10:25;;;;;;;1.70;1.60;;;;;;;22.46;56.76;93718.81;513973;28;845;-46
2023/08/15 01:10:42;;;;;;;1.97;1.80;;;;;;;22.45;56.93;93722.25;513879;28;900;-49
2023/08/15 01:10:58;;;;;;;3.20;2.35;;;;;;;22.44;56.86;93717.97;513937;28;833;-46
2023/08/15 01:11:14;;;;;;;2.97;2.25;;;;;;;22.43;57.07;93714.44;515870;28;935;-47
2023/08/15 01:11:35;;;;;;;2.63;1.93;;;;;;;22.43;57.14;93719.34;515759;28;832;-46
2023/08/15 01:11:57;;;;;;;2.50;2.10;;;;;;;22.42;57.03;93717.88;513373;28;1084;-45
2023/08/15 01:12:29;;;;;;;2.40;2.20;;;;;;;22.41;56.95;93714.34;510924;29;1724;-47
2023/08/15 01:12:57;;;;;;;2.42;2.13;;;;;;;22.42;57.07;93712.97;508524;29;1923;-49
2023/08/15 01:13:35;;;;;;;2.50;2.30;;;;;;;22.43;56.98;93717.25;508966;29;1100;-48
2023/08/15 01:14:00;;;;;;;2.22;1.75;;;;;;;22.44;57.07;93709.53;510425;29;1009;-47
2023/08/15 01:14:17;;;;;;;3.53;2.33;;;;;;;22.44;57.29;93710.25;511817;29;863;-46
2023/08/15 01:15:05;;;;;;;3.30;2.22;;;;;;;22.46;57.31;93712.44;509974;29;872;-46
2023/08/15 01:15:28;;;;;;;2.47;2.28;;;;;;;22.44;57.11;93710.25;505574;29;985;-46
2023/08/15 01:15:48;;;;;;;2.38;2.17;;;;;;;22.45;57.19;93719.44;508570;29;989;-48
2023/08/15 01:16:07;;;;;;;2.20;2.00;;;;;;;22.43;57.29;93711.63;508273;29;816;-46
2023/08/15 01:16:27;;;;;;;2.20;2.00;;;;;;;22.43;57.13;93708.81;510335;29;1627;-45
2023/08/15 01:16:44;;;;;;;2.25;2.00;;;;;;;22.42;56.93;93712.25;511781;28;1741;-47
2023/08/15 01:17:00;;;;;;;2.92;1.88;;;;;;;22.41;57.00;93716.41;509701;29;1282;-46
2023/08/15 01:17:20;;;;;;;2.88;1.92;;;;;;;22.39;56.93;93714.19;510877;29;879;-48
2023/08/15 01:17:41;;;;;;;2.30;2.10;;;;;;;22.39;57.50;93713.50;509377;29;1240;-48
2023/08/15 01:18:10;;;;;;;2.20;2.00;;;;;;;22.37;57.44;93710.56;510802;29;909;-46
2023/08/15 01:18:55;;;;;;;2.40;1.90;;;;;;;22.35;57.27;93707.66;511307;29;847;-46
2023/08/15 01:19:13;;;;;;;2.30;2.10;;;;;;;22.34;57.13;93717.44;512931;28;1141;-46